createdAt,value
2023-04-19T06:37:14.722Z,71.09
2023-04-19T06:37:26.469Z,70.18
2023-04-19T06:37:36.677Z,70.08
2023-04-19T06:37:45.897Z,70.39
2023-04-19T06:37:55.993Z,70.18
2023-04-19T06:38:06.179Z,68.26
2023-04-19T06:38:16.307Z,67.45
2023-04-19T06:38:36.501Z,69.74
2023-04-19T06:38:46.581Z,70.25
2023-04-19T06:38:56.735Z,69.65
2023-04-19T06:39:06.937Z,70.56
2023-04-19T06:39:16.890Z,68.33
2023-04-19T06:39:27.046Z,66.81
2023-04-19T06:39:37.128Z,67.52
2023-04-19T06:39:47.245Z,67.93
2023-04-19T06:39:57.359Z,69.04
2023-04-19T06:40:07.433Z,69.95
2023-04-19T06:40:17.665Z,70.56
2023-04-19T06:40:28.024Z,71.47
2023-04-19T06:40:37.861Z,71.37
2023-04-19T06:40:48.090Z,71.77
2023-04-19T06:40:58.122Z,73.09
2023-04-19T06:41:08.357Z,70.42
2023-04-19T06:41:18.395Z,68.19
2023-04-19T06:41:28.578Z,68.90
2023-04-19T06:41:38.641Z,69.21
2023-04-19T06:41:48.892Z,68.57
2023-04-19T06:41:58.929Z,66.24
2023-04-19T06:42:09.113Z,64.83
2023-04-19T06:42:19.184Z,64.93
2023-04-19T06:42:29.417Z,65.10
2023-04-19T06:42:39.363Z,64.79
2023-04-19T06:42:49.742Z,63.99
2023-04-19T06:42:59.725Z,64.36
2023-04-19T06:43:09.848Z,63.15
2023-04-19T06:43:19.910Z,62.54
2023-04-19T06:43:30.064Z,63.05
2023-04-19T06:43:40.203Z,62.64
2023-04-19T06:43:50.372Z,62.01
2023-04-19T06:44:00.416Z,62.11
2023-04-19T06:44:10.752Z,61.60
2023-04-19T06:44:20.702Z,61.20
2023-04-19T06:44:30.813Z,60.69
2023-04-19T06:44:40.901Z,61.20
2023-04-19T06:44:51.131Z,62.51
2023-04-19T06:45:01.174Z,61.91
2023-04-19T06:45:11.274Z,62.62
2023-04-19T06:45:21.394Z,63.12
2023-04-19T06:45:31.465Z,62.71
2023-04-19T06:45:41.573Z,61.71
2023-04-19T06:45:51.866Z,62.74
2023-04-19T06:46:01.778Z,62.11
2023-04-19T06:46:11.861Z,61.60
2023-04-19T06:46:22.222Z,62.11
2023-04-19T06:46:32.421Z,62.51
2023-04-19T06:46:42.388Z,64.73
2023-04-19T06:46:52.420Z,65.14
2023-04-19T06:47:02.582Z,63.25
2023-04-19T06:47:12.694Z,62.85
2023-04-19T06:47:22.916Z,63.45
2023-04-19T06:47:34.993Z,64.19
2023-04-19T06:47:43.030Z,63.38
2023-04-19T06:47:53.149Z,62.47
2023-04-19T06:48:03.313Z,62.47
2023-04-19T06:48:13.483Z,61.96
2023-04-19T06:48:23.520Z,62.37
2023-04-19T06:48:33.670Z,63.51
2023-04-19T06:48:43.768Z,64.02
2023-04-19T06:48:54.023Z,65.33
2023-04-19T06:49:04.096Z,66.04
2023-04-19T06:49:14.165Z,66.14
2023-04-19T06:49:24.395Z,64.35
2023-04-19T06:49:34.485Z,63.34
2023-04-19T06:49:45.469Z,64.86
2023-04-19T06:49:54.689Z,64.35
2023-04-19T06:50:04.887Z,64.86
2023-04-19T06:50:14.964Z,65.56
2023-04-19T06:50:25.845Z,64.96
2023-04-19T06:50:35.088Z,64.45
2023-04-19T06:50:55.290Z,65.16
2023-04-19T06:51:05.587Z,66.47
2023-04-19T06:51:15.610Z,67.18
2023-04-19T06:51:25.593Z,67.99
2023-04-19T06:51:35.727Z,67.35
2023-04-19T06:51:45.860Z,66.75
2023-04-19T06:51:56.246Z,66.55
2023-04-19T06:52:06.084Z,66.85
2023-04-19T06:52:16.187Z,67.25
2023-04-19T06:52:26.351Z,65.70
2023-04-19T06:52:36.458Z,65.61
2023-04-19T06:52:46.552Z,65.30
2023-04-19T06:52:56.756Z,63.58
2023-04-19T06:53:06.758Z,63.15
2023-04-19T06:53:16.999Z,63.35
2023-04-19T06:53:27.007Z,63.55
2023-04-19T06:53:37.290Z,63.55
2023-04-19T06:53:47.380Z,63.32
2023-04-19T06:53:57.599Z,63.05
2023-04-19T06:54:07.602Z,63.45
2023-04-19T06:54:17.868Z,62.92
2023-04-19T06:54:27.830Z,63.45
2023-04-19T06:54:38.074Z,63.05
2023-04-19T06:54:48.577Z,63.25
2023-04-19T06:54:58.287Z,63.15
2023-04-19T06:55:08.248Z,63.96
2023-04-19T06:55:18.467Z,64.87
2023-04-19T06:55:28.532Z,64.90
2023-04-19T06:55:38.797Z,65.30
2023-04-19T06:55:48.754Z,65.30
2023-04-19T06:55:58.984Z,66.52
2023-04-19T06:56:09.097Z,65.70
2023-04-19T06:56:19.266Z,65.23
2023-04-19T06:56:29.325Z,64.52
2023-04-19T06:56:39.647Z,64.42
2023-04-19T06:56:49.709Z,65.53
2023-04-19T06:56:59.844Z,66.98
2023-04-19T06:57:09.884Z,67.59
2023-04-19T06:57:20.009Z,65.36
2023-04-19T06:57:30.157Z,64.45
2023-04-19T06:57:40.443Z,64.96
2023-04-19T06:57:50.333Z,65.09
2023-04-19T06:58:00.508Z,64.89
2023-04-19T06:58:10.583Z,64.58
2023-04-19T06:58:20.820Z,65.09
2023-04-19T06:58:31.310Z,65.70
2023-04-19T06:58:40.982Z,66.30
2023-04-19T06:58:51.168Z,68.33
2023-04-19T06:59:01.309Z,69.85
2023-04-19T06:59:11.322Z,69.14
2023-04-19T06:59:21.502Z,68.94
2023-04-19T06:59:31.681Z,68.13
2023-04-19T06:59:42.776Z,68.13
2023-04-19T06:59:51.936Z,69.34
2023-04-19T07:00:02.086Z,68.33
2023-04-19T07:00:12.093Z,66.41
2023-04-19T07:00:22.305Z,67.52
2023-04-19T07:00:32.258Z,68.73
2023-04-19T07:00:52.558Z,70.86
2023-04-19T07:01:02.828Z,71.37
2023-04-19T07:01:13.019Z,70.86
2023-04-19T07:01:23.346Z,69.85
2023-04-19T07:01:33.265Z,68.94
2023-04-19T07:01:43.276Z,69.44
2023-04-19T07:01:53.441Z,66.50
2023-04-19T07:02:03.667Z,65.02
2023-04-19T07:02:13.721Z,63.98
2023-04-19T07:02:23.975Z,64.21
2023-04-19T07:02:33.982Z,63.87
2023-04-19T07:02:44.154Z,64.89
2023-04-19T07:02:54.276Z,65.70
2023-04-19T07:03:04.369Z,65.90
2023-04-19T07:03:14.586Z,66.30
2023-04-19T07:03:24.505Z,66.41
2023-04-19T07:03:34.674Z,65.90
2023-04-19T07:03:44.866Z,66.30
2023-04-19T07:03:57.252Z,67.11
2023-04-19T07:04:05.380Z,67.52
2023-04-19T07:04:15.449Z,66.50
2023-04-19T07:04:25.328Z,66.30
2023-04-19T07:04:35.393Z,65.80
2023-04-19T07:04:45.907Z,65.09
2023-04-19T07:04:55.711Z,65.19
2023-04-19T07:05:06.045Z,64.79
2023-04-19T07:05:15.922Z,65.29
2023-04-19T07:05:26.022Z,66.10
2023-04-19T07:05:36.252Z,65.59
2023-04-19T07:05:46.410Z,65.36
2023-04-19T07:05:56.449Z,65.36
2023-04-19T07:06:06.613Z,66.38
2023-04-19T07:06:16.868Z,65.97
2023-04-19T07:06:26.954Z,65.16
2023-04-19T07:06:37.031Z,64.45
2023-04-19T07:06:47.282Z,64.42
2023-04-19T07:06:57.240Z,64.52
2023-04-19T07:07:07.423Z,64.22
2023-04-19T07:07:17.678Z,64.12
2023-04-19T07:07:27.737Z,64.12
2023-04-19T07:07:37.980Z,64.22
2023-04-19T07:07:47.849Z,64.52
2023-04-19T07:07:57.994Z,64.12
2023-04-19T07:08:08.272Z,63.92
2023-04-19T07:08:18.273Z,63.81
2023-04-19T07:08:38.570Z,63.78
2023-04-19T07:08:54.271Z,63.99
2023-04-19T07:09:00.220Z,64.29
2023-04-19T07:09:10.467Z,64.29
2023-04-19T07:09:20.531Z,64.29
2023-04-19T07:09:30.557Z,64.26
2023-04-19T07:09:40.602Z,64.06
2023-04-19T07:10:00.871Z,64.67
2023-04-19T07:10:11.083Z,65.07
2023-04-19T07:10:21.197Z,65.07
2023-04-19T07:10:31.226Z,64.64
2023-04-19T07:10:41.337Z,64.33
2023-04-19T07:10:51.642Z,64.13
2023-04-19T07:11:01.619Z,63.93
2023-04-19T07:11:11.732Z,63.73
2023-04-19T07:11:22.888Z,63.52
2023-04-19T07:11:31.984Z,63.62
2023-04-19T07:11:42.174Z,63.59
2023-04-19T07:11:52.289Z,62.99
2023-04-19T07:12:02.307Z,62.68
2023-04-19T07:12:12.481Z,62.68
2023-04-19T07:12:22.623Z,62.28
2023-04-19T07:12:32.733Z,62.18
2023-04-19T07:12:42.756Z,62.18
2023-04-19T07:12:52.891Z,61.47
2023-04-19T07:13:03.082Z,60.26
2023-04-19T07:13:13.186Z,59.45
2023-04-19T07:13:23.290Z,58.82
2023-04-19T07:13:33.436Z,59.02
2023-04-19T07:13:43.574Z,59.02
2023-04-19T07:13:53.646Z,59.33
2023-04-19T07:14:03.847Z,59.53
2023-04-19T07:14:14.189Z,59.63
2023-04-19T07:14:24.147Z,59.83
2023-04-19T07:14:34.232Z,60.03
2023-04-19T07:14:44.284Z,59.93
2023-04-19T07:14:54.426Z,59.42
2023-04-19T07:15:04.573Z,58.82
2023-04-19T07:15:14.779Z,58.72
2023-04-19T07:15:24.941Z,58.92
2023-04-19T07:15:35.085Z,59.22
2023-04-19T07:15:45.298Z,59.42
2023-04-19T07:15:55.351Z,59.12
2023-04-19T07:16:05.473Z,59.53
2023-04-19T07:16:16.565Z,58.89
2023-04-19T07:16:25.679Z,59.00
2023-04-19T07:16:35.804Z,59.50
2023-04-19T07:16:45.874Z,59.09
2023-04-19T07:16:56.744Z,59.60
2023-04-19T07:17:06.032Z,59.60
2023-04-19T07:17:26.281Z,60.21
2023-04-19T07:17:36.505Z,59.60
2023-04-19T07:17:46.588Z,59.40
2023-04-19T07:17:56.753Z,59.90
2023-04-19T07:18:06.993Z,60.71
2023-04-19T07:18:16.978Z,59.90
2023-04-19T07:18:27.259Z,60.41
2023-04-19T07:18:37.346Z,60.51
2023-04-19T07:18:47.393Z,60.21
2023-04-19T07:18:57.587Z,60.00
2023-04-19T07:19:07.651Z,59.60
2023-04-19T07:19:17.940Z,59.60
2023-04-19T07:19:27.983Z,60.00
2023-04-19T07:19:38.177Z,60.00
2023-04-19T07:19:48.234Z,59.90
2023-04-19T07:19:58.337Z,59.30
2023-04-19T07:20:08.389Z,58.69
2023-04-19T07:20:18.685Z,58.69
2023-04-19T07:20:28.654Z,59.09
2023-04-19T07:20:38.753Z,59.60
2023-04-19T07:20:48.812Z,59.40
2023-04-19T07:20:59.047Z,58.80
2023-04-19T07:21:09.129Z,58.59
2023-04-19T07:21:19.205Z,58.49
2023-04-19T07:21:29.313Z,58.19
2023-04-19T07:21:39.418Z,59.09
2023-04-19T07:21:49.839Z,60.31
2023-04-19T07:21:59.777Z,59.90
2023-04-19T07:22:15.192Z,59.20
2023-04-19T07:22:21.285Z,58.59
2023-04-19T07:22:31.321Z,57.98
2023-04-19T07:22:41.437Z,57.48
2023-04-19T07:22:51.558Z,57.38
2023-04-19T07:23:01.701Z,57.38
2023-04-19T07:23:21.884Z,57.48
2023-04-19T07:23:31.918Z,58.29
2023-04-19T07:23:42.280Z,58.89
2023-04-19T07:23:52.251Z,59.30
2023-04-19T07:24:02.403Z,59.40
2023-04-19T07:24:12.519Z,59.50
2023-04-19T07:24:22.737Z,59.60
2023-04-19T07:24:32.772Z,59.20
2023-04-19T07:24:42.915Z,59.09
2023-04-19T07:24:53.111Z,59.30
2023-04-19T07:25:03.273Z,59.07
2023-04-19T07:25:13.347Z,59.17
2023-04-19T07:25:23.541Z,59.27
2023-04-19T07:25:33.485Z,59.17
2023-04-19T07:25:43.799Z,59.17
2023-04-19T07:25:53.831Z,59.37
2023-04-19T07:26:03.907Z,59.37
2023-04-19T07:26:14.057Z,59.47
2023-04-19T07:26:24.147Z,59.47
2023-04-19T07:26:34.330Z,59.55
2023-04-19T07:26:44.460Z,59.14
2023-04-19T07:26:54.461Z,58.64
2023-04-19T07:27:04.666Z,58.23
2023-04-19T07:27:14.866Z,58.03
2023-04-19T07:27:24.973Z,57.93
2023-04-19T07:27:34.998Z,57.83
2023-04-19T07:27:45.157Z,57.73
2023-04-19T07:27:55.538Z,57.43
2023-04-19T07:28:05.536Z,57.63
2023-04-19T07:28:15.558Z,57.93
2023-04-19T07:28:25.755Z,57.90
2023-04-19T07:28:35.880Z,58.11
2023-04-19T07:28:45.903Z,57.81
2023-04-19T07:28:56.101Z,57.30
2023-04-19T07:29:06.183Z,57.10
2023-04-19T07:29:17.159Z,57.10
2023-04-19T07:29:26.569Z,56.90
2023-04-19T07:29:36.535Z,56.80
2023-04-19T07:29:46.732Z,56.90
2023-04-19T07:29:56.727Z,57.20
2023-04-19T07:30:07.018Z,57.60
2023-04-19T07:30:27.123Z,57.30
2023-04-19T07:30:37.442Z,57.30
2023-04-19T07:30:47.547Z,57.50
2023-04-19T07:30:57.702Z,57.60
2023-04-19T07:31:07.824Z,57.30
2023-04-19T07:31:17.754Z,56.90
2023-04-19T07:31:28.054Z,56.80
2023-04-19T07:31:38.166Z,56.80
2023-04-19T07:31:48.163Z,56.70
2023-04-19T07:31:58.300Z,57.30
2023-04-19T07:32:08.597Z,58.01
2023-04-19T07:32:18.623Z,58.11
2023-04-19T07:32:29.282Z,57.81
2023-04-19T07:32:39.043Z,57.50
2023-04-19T07:32:49.046Z,57.20
2023-04-19T07:32:59.075Z,57.10
2023-04-19T07:33:09.227Z,56.90
2023-04-19T07:33:19.274Z,56.80
2023-04-19T07:33:29.479Z,57.32
2023-04-19T07:33:39.479Z,57.53
2023-04-19T07:33:49.643Z,57.73
2023-04-19T07:33:59.684Z,57.53
2023-04-19T07:34:09.918Z,57.32
2023-04-19T07:34:20.043Z,57.32
2023-04-19T07:34:30.143Z,57.53
2023-04-19T07:34:40.291Z,57.53
2023-04-19T07:34:50.413Z,57.73
2023-04-19T07:35:00.579Z,58.14
2023-04-19T07:35:10.747Z,57.83
2023-04-19T07:35:20.799Z,57.83
2023-04-19T07:35:31.009Z,57.93
2023-04-19T07:35:40.982Z,57.73
2023-04-19T07:35:51.184Z,57.73
2023-04-19T07:36:01.288Z,57.73
2023-04-19T07:36:11.417Z,57.83
2023-04-19T07:36:21.394Z,57.43
2023-04-19T07:36:31.608Z,57.53
2023-04-19T07:36:41.774Z,57.53
2023-04-19T07:36:51.973Z,57.32
2023-04-19T07:37:02.020Z,57.12
2023-04-19T07:37:12.145Z,57.03
2023-04-19T07:37:22.317Z,57.12
2023-04-19T07:37:32.430Z,57.32
2023-04-19T07:37:42.599Z,57.23
2023-04-19T07:37:52.763Z,57.12
2023-04-19T07:38:02.881Z,57.03
2023-04-19T07:38:12.953Z,57.12
2023-04-19T07:38:23.181Z,57.43
2023-04-19T07:38:33.234Z,57.43
2023-04-19T07:38:43.270Z,57.73
2023-04-19T07:38:53.546Z,57.63
2023-04-19T07:39:03.516Z,57.43
2023-04-19T07:39:13.647Z,57.32
2023-04-19T07:39:23.853Z,57.43
